Terminal Aerodrome Forecast
Issued by NWS

Home | Current Version | Previous Version | Text Only | Print | Product List | Glossary On
Versions: 1 2 3 4 5 6 7 8 9 10 11 12 13
000
FTUS42 KMLB 282300
TAFLEE
TAF
KLEE 282325Z 2900/2924 25003KT P6SM FEW030 BKN250
     FM290600 00000KT 1SM BR OVC004
      TEMPO 2908/2912 1/4SM FG VV002
     FM291500 23005KT P6SM OVC010=

USA.gov is the U.S. government's official web portal to all federal, state and local government web resources and services.